• Join FlightAware (Why Join?)
  • Login
  • US Flag 
10:35AM EDT


 

Airport Tracker/Info


-or-


 

Live Flight TrackerFlight Track Log ✈ N821WW ✈ 16-Mar-2014 ✈ KAPA - KPUB

Flight Track Log - Related Links

Times and Time Zones

All times are in EDT time to prevent confusion due to time zone crossing. See the N821WW flight status page for this flight to view local times or setup timezone preferences in your user account.

Time Position Orientation Groundspeed Altitude Reporting Facility
EDT Latitude Longitude Course Direction KTS MPH feet Rate Location/Type
11:16AM 39.5667 -104.8167 136° Southeast 79 91 6,300  Level Denver TRACON
11:17AM 39.5500 -104.8000 142° Southeast 83 96 6,800 420 Climbing Denver TRACON
11:18AM 39.5333 -104.7833 142° Southeast 110 127 7,200 420 Climbing Denver TRACON
11:19AM 39.5108 -104.7750 164° South 116 133 7,500 420 Climbing Denver Center
11:20AM 39.4883 -104.7556 146° Southeast 117 135 7,900 480 Climbing Denver Center
11:21AM 39.4533 -104.7247 146° Southeast 123 142 8,600 480 Climbing Denver Center
11:22AM 39.3438 -104.7862 136° Southeast  Level Estimated
11:22AM 39.4308 -104.6894 130° Southeast 124 143 9,000  Level Denver Center
11:23AM 39.4014 -104.6458 131° Southeast 150 173 9,000  Level Denver Center
11:24AM 39.3725 -104.6047 132° Southeast 152 175 9,000  Level Denver Center
11:25AM 39.3439 -104.5658 134° Southeast 152 175 9,000  Level Denver Center
11:26AM 39.3136 -104.5233 133° Southeast 151 174 9,000  Level Denver Center
11:27AM 39.2775 -104.4739 133° Southeast 152 175 9,000  Level Denver Center
11:28AM 39.2469 -104.4314 133° Southeast 151 174 9,000  Level Denver Center
11:29AM 39.2192 -104.3911 132° Southeast 150 173 9,000  Level Denver Center
11:30AM 39.1747 -104.3881 177° South 155 178 9,000  Level Denver Center
11:31AM 39.1300 -104.3917 184° South 149 171 9,000  Level Denver Center
11:32AM 39.0958 -104.3958 185° South 148 170 9,000 120 Level Denver Center
11:33AM 39.0553 -104.4161 201° Southwest 141 162 9,300 360 Climbing Denver Center
11:34AM 39.0297 -104.4369 212° Southwest 123 142 9,800 480 Climbing Denver Center
11:35AM 39.0244 -104.4406 208° Southwest 108 124 9,900 240 Climbing Denver Center
11:35AM 38.9925 -104.4497 193° South 129 148 10,100 120 Climbing Denver Center
11:37AM 38.9533 -104.4514 182° South 146 168 10,200 120 Climbing Denver Center
11:38AM 38.9072 -104.4533 182° South 146 168 10,400 -60 Climbing Denver Center
11:38AM 38.8742 -104.4556 183° South 170 196 10,100 -300 Descending Denver Center
11:39AM 38.8614 -104.4556 180° South 164 189 10,100 -120 Level Denver Center
11:40AM 38.8100 -104.4583 182° South 167 192 10,000 -60 Descending Denver Center
11:41AM 38.7675 -104.4636 186° South 162 186 10,000  Level Denver Center
11:42AM 38.7167 -104.4667 183° South 162 186 10,000  Level Denver Center
11:43AM 38.6736 -104.4694 183° South 162 186 10,000  Level Denver Center
11:44AM 38.6236 -104.4725 183° South 162 186 10,000  Level Denver Center
11:45AM 38.5800 -104.4761 184° South 162 186 10,000  Level Denver Center
11:46AM 38.5436 -104.4792 184° South 162 186 10,000 -240 Level Denver Center
11:47AM 38.4994 -104.4386 144° Southeast 156 180 9,600 -540 Descending Denver Center
11:48AM 38.4656 -104.3933 134° Southeast 156 180 9,000 -480 Descending Denver Center
11:49AM 38.4375 -104.3564 134° Southeast 156 180 8,600 -480 Descending Denver Center
11:50AM 38.4092 -104.3206 135° Southeast 154 177 8,100 -300 Descending Denver Center
11:51AM 38.3817 -104.2803 131° Southeast 143 165 8,000 -60 Descending Denver Center
11:52AM 38.3592 -104.2506 134° Southeast 130 150 8,000 -240 Level Denver Center
11:53AM 38.3186 -104.2453 174° South 136 157 7,600 -420 Descending Denver Center
11:54AM 38.2944 -104.2700 219° Southwest 123 142 7,200 -360 Descending Denver Center
11:55AM 38.2903 -104.3139 263° West 117 135 6,900 -300 Descending Denver Center
11:56AM 38.2914 -104.3433 273° West 100 115 6,700 -420 Descending Denver Center
11:57AM 38.2897 -104.3797 267° West 93 107 6,100 -600 Descending Denver Center
11:58AM 38.2892 -104.4161 269° West 98 113 5,500 -540 Descending Denver Center
11:59AM 38.2883 -104.4483 268° West 99 114 5,000 -540 Descending Denver Center